createdAt,value
2019-03-10T00:01:42.536Z,4.70
2019-03-10T00:04:10.354Z,4.70
2019-03-10T00:06:38.669Z,4.70
2019-03-10T00:09:07.426Z,4.70
2019-03-10T00:11:35.300Z,4.60
2019-03-10T00:14:03.712Z,4.50
2019-03-10T00:16:31.746Z,4.50
2019-03-10T00:18:59.733Z,4.50
2019-03-10T00:21:27.830Z,4.50
2019-03-10T00:23:55.985Z,4.50
2019-03-10T00:26:23.949Z,4.50
2019-03-10T00:28:51.890Z,4.50
2019-03-10T00:31:19.943Z,4.50
2019-03-10T00:33:48.008Z,4.50
2019-03-10T00:36:16.158Z,4.50
2019-03-10T00:38:52.677Z,4.50
2019-03-10T00:41:39.725Z,4.50
2019-03-10T00:44:42.085Z,4.40
2019-03-10T00:47:27.783Z,4.50
2019-03-10T00:50:30.150Z,4.50
2019-03-10T00:52:58.521Z,4.50
2019-03-10T00:55:26.438Z,4.50
2019-03-10T00:57:54.610Z,4.50
2019-03-10T01:00:22.700Z,4.50
2019-03-10T01:02:50.914Z,4.50
2019-03-10T01:05:18.713Z,4.50
2019-03-10T01:07:46.510Z,4.50
2019-03-10T01:10:14.286Z,4.50
2019-03-10T01:12:42.163Z,4.50
2019-03-10T01:15:10.245Z,4.50
2019-03-10T01:17:38.203Z,4.50
2019-03-10T01:20:06.698Z,4.40
2019-03-10T01:22:35.328Z,4.40
2019-03-10T01:25:03.190Z,4.40
2019-03-10T01:27:31.025Z,4.40
2019-03-10T01:29:59.079Z,4.40
2019-03-10T01:32:35.457Z,4.30
2019-03-10T01:35:08.273Z,4.40
2019-03-10T01:37:36.106Z,4.30
2019-03-10T01:40:04.482Z,4.30
2019-03-10T01:42:32.381Z,4.30
2019-03-10T01:45:00.197Z,4.20
2019-03-10T01:47:28.108Z,4.20
2019-03-10T01:49:55.939Z,4.20
2019-03-10T01:52:23.822Z,4.20
2019-03-10T01:54:51.662Z,4.20
2019-03-10T01:57:19.465Z,4.30
2019-03-10T01:59:47.289Z,4.30
2019-03-10T02:02:15.187Z,4.40
2019-03-10T02:04:43.064Z,4.50
2019-03-10T02:07:10.939Z,4.50
2019-03-10T02:09:38.769Z,4.40
2019-03-10T02:12:06.639Z,4.40
2019-03-10T02:14:34.542Z,4.40
2019-03-10T02:17:02.384Z,4.40
2019-03-10T02:19:30.367Z,4.40
2019-03-10T02:21:58.491Z,4.30
2019-03-10T02:24:26.301Z,4.30
2019-03-10T02:26:54.076Z,4.30
2019-03-10T02:29:21.887Z,4.30
2019-03-10T02:31:49.691Z,4.20
2019-03-10T02:34:17.464Z,4.20
2019-03-10T02:36:45.314Z,4.20
2019-03-10T02:39:13.274Z,4.10
2019-03-10T02:41:41.055Z,4.10
2019-03-10T02:44:08.925Z,4.20
2019-03-10T02:46:36.791Z,4.20
2019-03-10T02:49:04.814Z,4.20
2019-03-10T02:51:32.631Z,4.20
2019-03-10T02:54:00.489Z,4.20
2019-03-10T02:56:28.271Z,4.10
2019-03-10T02:58:56.148Z,4.10
2019-03-10T03:01:23.993Z,4.10
2019-03-10T03:03:52.375Z,4.20
2019-03-10T03:06:20.234Z,4.20
2019-03-10T03:08:48.522Z,4.20
2019-03-10T03:11:16.402Z,4.10
2019-03-10T03:13:44.278Z,4.10
2019-03-10T03:16:12.375Z,4.10
2019-03-10T03:18:40.210Z,4.10
2019-03-10T03:21:08.322Z,4.20
2019-03-10T03:23:36.141Z,4.10
2019-03-10T03:26:04.130Z,4.00
2019-03-10T03:28:32.652Z,4.10
2019-03-10T03:31:00.553Z,4.10
2019-03-10T03:33:28.448Z,4.20
2019-03-10T03:36:01.458Z,4.20
2019-03-10T03:38:39.934Z,4.20
2019-03-10T03:41:09.587Z,4.20
2019-03-10T03:43:37.416Z,4.30
2019-03-10T03:46:05.263Z,4.20
2019-03-10T03:48:33.138Z,4.20
2019-03-10T03:51:01.095Z,4.20
2019-03-10T03:53:28.947Z,4.30
2019-03-10T03:55:56.743Z,4.30
2019-03-10T03:58:24.608Z,4.30
2019-03-10T04:00:58.134Z,4.30
2019-03-10T04:03:26.081Z,4.30
2019-03-10T04:05:53.950Z,4.30
2019-03-10T04:08:21.825Z,4.20
2019-03-10T04:10:49.695Z,4.30
2019-03-10T04:13:17.552Z,4.30
2019-03-10T04:15:45.432Z,4.30
2019-03-10T04:18:14.307Z,4.30
2019-03-10T04:20:42.182Z,4.30
2019-03-10T04:23:10.434Z,4.40
2019-03-10T04:25:38.343Z,4.40
2019-03-10T04:28:06.170Z,4.40
2019-03-10T04:30:33.954Z,4.40
2019-03-10T04:33:01.811Z,4.40
2019-03-10T04:35:29.706Z,4.40
2019-03-10T04:37:57.574Z,4.50
2019-03-10T04:40:25.443Z,4.50
2019-03-10T04:42:53.282Z,4.60
2019-03-10T04:45:21.082Z,4.70
2019-03-10T04:47:48.922Z,4.70
2019-03-10T04:50:16.798Z,4.80
2019-03-10T04:52:44.649Z,4.90
2019-03-10T04:55:24.501Z,5.00
2019-03-10T04:58:03.358Z,5.00
2019-03-10T05:00:32.414Z,5.00
2019-03-10T05:03:00.178Z,5.10
2019-03-10T05:05:28.246Z,5.10
2019-03-10T05:07:56.110Z,5.10
2019-03-10T05:10:25.137Z,5.10
2019-03-10T05:12:53.177Z,5.10
2019-03-10T05:15:21.091Z,5.10
2019-03-10T05:17:48.946Z,5.10
2019-03-10T05:20:16.798Z,5.10
2019-03-10T05:22:44.646Z,5.10
2019-03-10T05:25:12.849Z,5.10
2019-03-10T05:27:40.755Z,5.10
2019-03-10T05:30:08.558Z,5.20
2019-03-10T05:32:36.510Z,5.20
2019-03-10T05:35:04.521Z,5.20
2019-03-10T05:37:32.381Z,5.10
2019-03-10T05:40:00.312Z,5.00
2019-03-10T05:42:28.202Z,5.00
2019-03-10T05:44:56.097Z,5.00
2019-03-10T05:47:23.874Z,5.00
2019-03-10T05:49:51.679Z,4.90
2019-03-10T05:52:19.469Z,4.90
2019-03-10T05:54:47.349Z,4.90
2019-03-10T05:57:15.190Z,4.90
2019-03-10T05:59:43.086Z,4.90
2019-03-10T06:02:10.930Z,5.00
2019-03-10T06:04:38.811Z,5.00
2019-03-10T06:07:06.638Z,5.10
2019-03-10T06:09:34.435Z,5.10
2019-03-10T06:12:02.310Z,5.10
2019-03-10T06:14:30.175Z,5.10
2019-03-10T06:16:58.063Z,5.10
2019-03-10T06:19:25.911Z,5.10
2019-03-10T06:21:53.851Z,5.10
2019-03-10T06:24:21.642Z,5.00
2019-03-10T06:26:49.525Z,5.00
2019-03-10T06:29:17.380Z,5.00
2019-03-10T06:31:45.187Z,5.10
2019-03-10T06:34:12.963Z,5.10
2019-03-10T06:36:40.788Z,5.10
2019-03-10T06:39:08.613Z,5.20
2019-03-10T06:41:36.405Z,5.30
2019-03-10T06:44:04.342Z,5.40
2019-03-10T06:46:32.164Z,5.50
2019-03-10T06:48:59.998Z,5.70
2019-03-10T06:51:27.811Z,5.80
2019-03-10T06:53:55.641Z,6.00
2019-03-10T06:56:23.443Z,6.10
2019-03-10T06:58:51.270Z,6.30
2019-03-10T07:01:19.154Z,6.30
2019-03-10T07:03:47.042Z,6.40
2019-03-10T07:06:14.890Z,6.40
2019-03-10T07:08:42.739Z,6.50
2019-03-10T07:11:10.623Z,6.50
2019-03-10T07:13:39.682Z,6.50
2019-03-10T07:16:07.766Z,6.60
2019-03-10T07:18:35.697Z,6.60
2019-03-10T07:21:03.836Z,6.60
2019-03-10T07:23:31.699Z,6.70
2019-03-10T07:26:06.350Z,6.70
2019-03-10T07:28:40.834Z,6.80
2019-03-10T07:31:26.482Z,6.80
2019-03-10T07:34:12.413Z,6.90
2019-03-10T07:36:56.862Z,6.90
2019-03-10T07:39:31.778Z,6.90
2019-03-10T07:42:19.175Z,7.00
2019-03-10T07:44:52.334Z,7.00
2019-03-10T07:47:30.564Z,7.10
2019-03-10T07:50:16.431Z,7.20
2019-03-10T07:53:01.217Z,7.30
2019-03-10T07:55:37.108Z,7.40
2019-03-10T07:58:15.600Z,7.50
2019-03-10T08:01:09.357Z,7.60
2019-03-10T08:03:48.102Z,7.60
2019-03-10T08:06:34.702Z,7.60
2019-03-10T08:09:09.402Z,7.70
2019-03-10T08:11:59.424Z,7.80
2019-03-10T08:14:48.142Z,7.80
2019-03-10T08:17:32.236Z,7.80
2019-03-10T08:20:12.057Z,7.90
2019-03-10T08:22:46.094Z,8.00
2019-03-10T08:25:31.789Z,8.10
2019-03-10T08:28:20.363Z,8.10
2019-03-10T08:31:02.303Z,8.10
2019-03-10T08:33:49.058Z,8.30
2019-03-10T08:36:23.423Z,8.50
2019-03-10T08:39:05.848Z,8.70
2019-03-10T08:41:43.336Z,8.70
2019-03-10T08:44:19.791Z,8.80
2019-03-10T08:47:11.734Z,8.70
2019-03-10T08:49:51.172Z,8.60
2019-03-10T08:52:35.033Z,8.70
2019-03-10T08:55:11.879Z,8.50
2019-03-10T08:57:54.720Z,8.60
2019-03-10T09:00:39.454Z,8.70
2019-03-10T09:03:19.944Z,8.80
2019-03-10T09:06:00.591Z,8.80
2019-03-10T09:08:39.023Z,8.90
2019-03-10T09:11:18.029Z,9.00
2019-03-10T09:13:56.566Z,9.00
2019-03-10T09:16:52.722Z,8.90
2019-03-10T09:19:42.286Z,9.10
2019-03-10T09:22:31.450Z,9.20
2019-03-10T09:25:17.703Z,9.30
2019-03-10T09:27:56.700Z,9.30
2019-03-10T09:30:42.659Z,9.30
2019-03-10T09:33:19.239Z,9.40
2019-03-10T09:36:11.970Z,9.30
2019-03-10T09:38:45.170Z,9.30
2019-03-10T09:41:23.775Z,9.30
2019-03-10T09:44:00.571Z,9.40
2019-03-10T09:46:50.627Z,9.50
2019-03-10T09:49:32.555Z,9.60
2019-03-10T09:52:28.689Z,9.70
2019-03-10T09:55:09.053Z,9.70
2019-03-10T10:00:28.851Z,10.00
2019-03-10T10:03:31.298Z,10.00
2019-03-10T10:06:26.324Z,10.00
2019-03-10T10:09:13.242Z,9.90
2019-03-10T10:12:00.538Z,9.70
2019-03-10T10:14:48.893Z,9.50
2019-03-10T10:17:23.622Z,9.70
2019-03-10T10:20:17.055Z,9.90
2019-03-10T10:23:19.342Z,10.00
2019-03-10T10:26:12.834Z,10.00
2019-03-10T10:28:54.238Z,10.00
2019-03-10T10:31:40.062Z,10.10
2019-03-10T10:42:39.366Z,10.30
2019-03-10T10:45:17.312Z,10.10
2019-03-10T10:48:03.053Z,9.90
2019-03-10T10:50:41.078Z,9.80
2019-03-10T10:53:21.929Z,9.60
2019-03-10T10:56:04.462Z,9.50
2019-03-10T10:58:50.530Z,9.50
2019-03-10T11:01:40.803Z,9.40
2019-03-10T11:04:26.694Z,9.40
2019-03-10T11:07:13.798Z,9.30
2019-03-10T11:09:59.807Z,9.30
2019-03-10T11:12:47.122Z,9.20
2019-03-10T11:15:25.335Z,9.10
2019-03-10T11:18:09.270Z,9.10
2019-03-10T11:20:46.989Z,9.10
2019-03-10T11:23:20.124Z,9.10
2019-03-10T11:26:02.237Z,9.10
2019-03-10T11:28:48.087Z,8.90
2019-03-10T11:31:35.107Z,8.70
2019-03-10T11:34:11.398Z,8.50
2019-03-10T11:37:00.335Z,8.60
2019-03-10T11:39:57.106Z,8.70
2019-03-10T11:42:42.753Z,8.70
2019-03-10T11:45:18.738Z,8.90
2019-03-10T11:47:53.661Z,8.90
2019-03-10T11:50:39.683Z,9.00
2019-03-10T11:53:20.012Z,9.00
2019-03-10T11:55:56.391Z,8.80
2019-03-10T11:58:35.641Z,8.80
2019-03-10T12:01:13.731Z,8.90
2019-03-10T12:03:56.235Z,9.00
2019-03-10T12:06:30.463Z,9.00
2019-03-10T12:09:14.265Z,9.00
2019-03-10T12:11:49.607Z,9.00
2019-03-10T12:14:17.818Z,9.00
2019-03-10T12:16:45.843Z,9.10
2019-03-10T12:19:14.169Z,9.30
2019-03-10T12:21:45.724Z,9.20
2019-03-10T12:24:13.576Z,9.30
2019-03-10T12:26:41.430Z,9.30
2019-03-10T12:29:09.520Z,9.40
2019-03-10T12:31:37.377Z,9.50
2019-03-10T12:34:05.629Z,9.50
2019-03-10T12:36:34.136Z,9.30
2019-03-10T12:39:02.370Z,9.10
2019-03-10T12:41:30.552Z,9.00
2019-03-10T12:43:58.487Z,9.00
2019-03-10T12:46:26.561Z,9.00
2019-03-10T12:48:54.779Z,9.00
2019-03-10T12:51:22.572Z,9.10
2019-03-10T12:53:51.381Z,9.10
2019-03-10T12:56:19.555Z,9.20
2019-03-10T12:58:47.334Z,9.30
2019-03-10T13:01:15.556Z,9.30
2019-03-10T13:03:43.972Z,9.30
2019-03-10T13:06:12.866Z,9.30
2019-03-10T13:08:41.059Z,9.30
2019-03-10T13:11:09.379Z,9.30
2019-03-10T13:13:37.210Z,9.30
2019-03-10T13:16:05.473Z,9.10
2019-03-10T13:18:33.957Z,8.90
2019-03-10T13:21:02.466Z,8.70
2019-03-10T13:23:30.571Z,8.60
2019-03-10T13:25:58.663Z,8.40
2019-03-10T13:28:26.715Z,8.30
2019-03-10T13:30:54.918Z,8.20
2019-03-10T13:33:23.176Z,8.10
2019-03-10T13:35:53.483Z,8.00
2019-03-10T13:38:21.506Z,8.00
2019-03-10T13:40:50.591Z,7.90
2019-03-10T13:43:18.982Z,7.90
2019-03-10T13:45:48.584Z,7.80
2019-03-10T13:48:16.992Z,7.70
2019-03-10T13:50:44.982Z,7.70
2019-03-10T13:53:12.807Z,7.60
2019-03-10T13:55:40.844Z,7.60
2019-03-10T13:58:09.113Z,7.60
2019-03-10T14:00:37.626Z,7.50
2019-03-10T14:03:07.899Z,7.50
2019-03-10T14:05:36.225Z,7.50
2019-03-10T14:08:04.556Z,7.50
2019-03-10T14:10:32.708Z,7.50
2019-03-10T14:13:01.956Z,7.60
2019-03-10T14:15:30.089Z,7.50
2019-03-10T14:17:57.926Z,7.50
2019-03-10T14:20:25.707Z,7.50
2019-03-10T14:22:53.938Z,7.50
2019-03-10T14:25:22.042Z,7.40
2019-03-10T14:27:50.152Z,7.40
2019-03-10T14:30:18.377Z,7.40
2019-03-10T14:32:46.908Z,7.50
2019-03-10T14:35:15.507Z,7.60
2019-03-10T14:37:43.514Z,7.80
2019-03-10T14:40:11.753Z,7.90
2019-03-10T14:42:39.859Z,8.00
2019-03-10T14:45:09.086Z,8.00
2019-03-10T14:47:37.249Z,8.00
2019-03-10T14:50:05.704Z,7.90
2019-03-10T14:52:35.580Z,7.90
2019-03-10T14:55:03.745Z,7.80
2019-03-10T14:57:31.847Z,7.70
2019-03-10T15:00:07.311Z,7.60
2019-03-10T15:02:35.624Z,7.40
2019-03-10T15:05:03.691Z,7.30
2019-03-10T15:07:31.928Z,7.30
2019-03-10T15:09:59.942Z,7.20
2019-03-10T15:12:28.215Z,7.20
2019-03-10T15:14:56.252Z,7.20
2019-03-10T15:17:24.697Z,7.10
2019-03-10T15:19:52.756Z,7.10
2019-03-10T15:22:24.684Z,7.00
2019-03-10T15:24:52.482Z,7.00
2019-03-10T15:27:23.499Z,7.00
2019-03-10T15:29:51.131Z,7.00
2019-03-10T15:32:19.391Z,7.10
2019-03-10T15:34:47.722Z,7.10
2019-03-10T15:37:15.813Z,7.00
2019-03-10T15:39:43.986Z,6.90
2019-03-10T15:42:12.153Z,6.90
2019-03-10T15:44:40.845Z,6.80
2019-03-10T15:47:09.082Z,6.80
2019-03-10T15:49:37.306Z,6.70
2019-03-10T15:52:07.409Z,6.70
2019-03-10T15:54:35.313Z,6.70
2019-03-10T15:57:03.580Z,6.70
2019-03-10T15:59:31.909Z,6.70
2019-03-10T16:02:00.244Z,6.80
2019-03-10T16:04:28.410Z,6.80
2019-03-10T16:06:56.223Z,6.70
2019-03-10T16:09:24.447Z,6.70
2019-03-10T16:11:52.417Z,6.60
2019-03-10T16:14:20.497Z,6.60
2019-03-10T16:16:48.572Z,6.60
2019-03-10T16:19:16.904Z,6.50
2019-03-10T16:21:44.757Z,6.60
2019-03-10T16:24:12.549Z,6.50
2019-03-10T16:26:40.842Z,6.50
2019-03-10T16:29:09.155Z,6.40
2019-03-10T16:31:37.185Z,6.40
2019-03-10T16:34:05.461Z,6.40
2019-03-10T16:36:33.576Z,6.30
2019-03-10T16:39:02.171Z,6.30
2019-03-10T16:41:30.407Z,6.30
2019-03-10T16:43:58.520Z,6.20
2019-03-10T16:46:26.636Z,6.20
2019-03-10T16:48:54.784Z,6.20
2019-03-10T16:51:22.880Z,6.10
2019-03-10T16:53:51.145Z,6.10
2019-03-10T16:56:21.039Z,6.00
2019-03-10T16:58:49.256Z,6.00
2019-03-10T17:01:17.680Z,5.90
2019-03-10T17:03:45.699Z,5.90
2019-03-10T17:06:13.755Z,5.80
2019-03-10T17:08:41.928Z,5.80
2019-03-10T17:11:09.898Z,5.80
2019-03-10T17:13:38.079Z,5.70
2019-03-10T17:16:10.243Z,5.70
2019-03-10T17:18:38.370Z,5.60
2019-03-10T17:21:06.391Z,5.60
2019-03-10T17:23:36.181Z,5.50
2019-03-10T17:26:04.026Z,5.40
2019-03-10T17:28:33.047Z,5.40
2019-03-10T17:31:00.825Z,5.30
2019-03-10T17:33:28.633Z,5.20
2019-03-10T17:35:56.505Z,5.20
2019-03-10T17:38:24.418Z,5.20
2019-03-10T17:40:52.610Z,5.10
2019-03-10T17:43:20.411Z,5.10
2019-03-10T17:45:48.349Z,5.10
2019-03-10T17:48:16.166Z,5.00
2019-03-10T17:50:43.952Z,5.10
2019-03-10T17:53:11.898Z,5.00
2019-03-10T17:55:39.751Z,5.00
2019-03-10T17:58:07.679Z,4.90
2019-03-10T18:00:35.783Z,4.80
2019-03-10T18:03:03.959Z,4.80
2019-03-10T18:05:31.831Z,4.80
2019-03-10T18:07:59.726Z,4.80
2019-03-10T18:10:27.575Z,4.70
2019-03-10T18:12:55.629Z,4.70
2019-03-10T18:15:23.403Z,4.60
2019-03-10T18:17:51.335Z,4.60
2019-03-10T18:20:19.247Z,4.50
2019-03-10T18:22:47.097Z,4.50
2019-03-10T18:25:15.053Z,4.40
2019-03-10T18:27:43.122Z,4.30
2019-03-10T18:30:12.323Z,4.30
2019-03-10T18:32:43.526Z,4.10
2019-03-10T18:35:11.618Z,4.00
2019-03-10T18:37:39.516Z,4.00
2019-03-10T18:40:09.419Z,3.90
2019-03-10T18:42:37.281Z,3.80
2019-03-10T18:45:05.945Z,3.70
2019-03-10T18:47:34.082Z,3.50
2019-03-10T18:50:02.414Z,3.40
2019-03-10T18:52:30.877Z,3.20
2019-03-10T18:55:02.393Z,3.10
2019-03-10T18:57:33.328Z,3.00
2019-03-10T19:00:01.444Z,2.90
2019-03-10T19:02:29.269Z,2.80
2019-03-10T19:04:57.398Z,2.70
2019-03-10T19:07:25.253Z,2.60
2019-03-10T19:09:53.054Z,2.60
2019-03-10T19:12:20.842Z,2.50
2019-03-10T19:14:49.338Z,2.50
2019-03-10T19:17:17.220Z,2.50
2019-03-10T19:19:45.150Z,2.40
2019-03-10T19:22:13.023Z,2.40
2019-03-10T19:24:40.911Z,2.30
2019-03-10T19:27:30.361Z,2.20
2019-03-10T19:29:57.538Z,2.20
2019-03-10T19:32:25.406Z,2.10
2019-03-10T19:34:53.282Z,2.00
2019-03-10T19:37:21.184Z,2.00
2019-03-10T19:39:49.066Z,1.80
2019-03-10T19:42:17.095Z,1.70
2019-03-10T19:44:44.963Z,1.70
2019-03-10T19:47:12.811Z,1.60
2019-03-10T19:49:40.722Z,1.60
2019-03-10T19:52:08.561Z,1.60
2019-03-10T19:54:36.831Z,1.50
2019-03-10T19:57:04.698Z,1.40
2019-03-10T19:59:32.490Z,1.30
2019-03-10T20:02:00.354Z,1.20
2019-03-10T20:04:28.195Z,1.20
2019-03-10T20:06:56.060Z,1.20
2019-03-10T20:09:23.927Z,1.10
2019-03-10T20:11:51.802Z,1.10
2019-03-10T20:14:19.653Z,1.10
2019-03-10T20:16:47.517Z,1.00
2019-03-10T20:19:15.670Z,1.00
2019-03-10T20:21:43.550Z,1.00
2019-03-10T20:24:11.362Z,1.00
2019-03-10T20:26:39.511Z,1.00
2019-03-10T20:29:07.669Z,1.00
2019-03-10T20:31:35.547Z,1.00
2019-03-10T20:34:03.404Z,1.00
2019-03-10T20:36:31.299Z,1.10
2019-03-10T20:38:59.418Z,1.10
2019-03-10T20:41:27.225Z,1.10
2019-03-10T20:43:55.081Z,1.20
2019-03-10T20:46:22.971Z,1.20
2019-03-10T20:48:50.863Z,1.20
2019-03-10T20:51:18.725Z,1.20
2019-03-10T20:53:46.551Z,1.20
2019-03-10T20:56:14.434Z,1.20
2019-03-10T20:58:42.284Z,1.20
2019-03-10T21:01:10.430Z,1.20
2019-03-10T21:03:38.483Z,1.30
2019-03-10T21:06:06.351Z,1.30
2019-03-10T21:08:34.454Z,1.40
2019-03-10T21:11:02.350Z,1.40
2019-03-10T21:13:30.198Z,1.40
2019-03-10T21:15:57.993Z,1.50
2019-03-10T21:18:25.830Z,1.50
2019-03-10T21:20:53.721Z,1.40
2019-03-10T21:23:21.562Z,1.40
2019-03-10T21:25:49.643Z,1.40
2019-03-10T21:28:17.525Z,1.50
2019-03-10T21:30:45.413Z,1.40
2019-03-10T21:33:13.235Z,1.40
2019-03-10T21:35:41.609Z,1.50
2019-03-10T21:38:09.761Z,1.50
2019-03-10T21:40:37.582Z,1.50
2019-03-10T21:43:05.422Z,1.50
2019-03-10T21:45:33.316Z,1.60
2019-03-10T21:48:01.151Z,1.60
2019-03-10T21:50:29.122Z,1.70
2019-03-10T21:52:57.003Z,1.80
2019-03-10T21:55:27.213Z,1.80
2019-03-10T21:57:54.979Z,1.80
2019-03-10T22:00:23.291Z,1.90
2019-03-10T22:02:51.129Z,2.00
2019-03-10T22:05:19.382Z,2.00
2019-03-10T22:07:47.342Z,2.00
2019-03-10T22:10:25.755Z,2.10
2019-03-10T22:12:44.746Z,2.10
2019-03-10T22:15:12.674Z,2.20
2019-03-10T22:17:40.761Z,2.20
2019-03-10T22:20:10.439Z,2.20
2019-03-10T22:22:48.296Z,2.30
2019-03-10T22:25:12.735Z,2.30
2019-03-10T22:27:38.010Z,2.40
2019-03-10T22:30:06.351Z,2.40
2019-03-10T22:32:34.153Z,2.40
2019-03-10T22:35:02.003Z,2.50
2019-03-10T22:37:29.909Z,2.50
2019-03-10T22:39:57.998Z,2.50
2019-03-10T22:42:25.831Z,2.50
2019-03-10T22:44:53.675Z,2.50
2019-03-10T22:47:21.643Z,2.60
2019-03-10T22:49:49.542Z,2.60
2019-03-10T22:52:17.402Z,2.50
2019-03-10T22:54:45.256Z,2.60
2019-03-10T22:57:13.139Z,2.60
2019-03-10T22:59:40.987Z,2.60
2019-03-10T23:02:08.866Z,2.60
2019-03-10T23:04:36.726Z,2.60
2019-03-10T23:07:04.674Z,2.60
2019-03-10T23:09:32.823Z,2.70
2019-03-10T23:12:00.616Z,2.70
2019-03-10T23:14:28.415Z,2.70
2019-03-10T23:16:56.290Z,2.70
2019-03-10T23:19:24.138Z,2.70
2019-03-10T23:21:52.022Z,2.70
2019-03-10T23:24:19.883Z,2.80
2019-03-10T23:26:47.749Z,2.80
2019-03-10T23:29:15.599Z,2.80
2019-03-10T23:31:43.495Z,2.80
2019-03-10T23:34:11.342Z,2.80
2019-03-10T23:36:40.107Z,2.80
2019-03-10T23:39:08.511Z,2.80
2019-03-10T23:41:36.422Z,2.80
2019-03-10T23:44:04.250Z,2.80
2019-03-10T23:46:32.531Z,2.80
2019-03-10T23:49:00.391Z,2.80
2019-03-10T23:51:28.271Z,2.80
2019-03-10T23:53:56.377Z,2.80
2019-03-10T23:56:24.200Z,2.80
2019-03-10T23:58:52.074Z,2.80
